createdAt,value
2019-05-30T00:00:46.851Z,101270.14
2019-05-30T00:03:18.373Z,101270.28
2019-05-30T00:05:50.067Z,101269.55
2019-05-30T00:08:22.306Z,101264.84
2019-05-30T00:10:54.374Z,101263.11
2019-05-30T00:13:25.597Z,101273.48
2019-05-30T00:15:57.264Z,101270.76
2019-05-30T00:18:28.862Z,101274.66
2019-05-30T00:21:00.828Z,101277.61
2019-05-30T00:23:32.732Z,101280.14
2019-05-30T00:26:03.470Z,101282.16
2019-05-30T00:28:35.311Z,101271.37
2019-05-30T00:31:06.881Z,101277.75
2019-05-30T00:33:38.774Z,101282.13
2019-05-30T00:36:10.691Z,101282.16
2019-05-30T00:38:41.425Z,101281.42
2019-05-30T00:41:13.067Z,101281.42
2019-05-30T00:43:44.774Z,101281.59
2019-05-30T00:46:15.930Z,101281.22
2019-05-30T00:48:47.763Z,101278.51
2019-05-30T00:51:18.933Z,101284.98
2019-05-30T00:53:51.306Z,101280.84
2019-05-30T00:56:22.841Z,101286.80
2019-05-30T00:58:54.591Z,101281.93
2019-05-30T01:01:26.173Z,101277.28
2019-05-30T01:03:58.628Z,101283.11
2019-05-30T01:06:30.352Z,101280.00
2019-05-30T01:09:03.167Z,101283.42
2019-05-30T01:11:35.298Z,101285.27
2019-05-30T01:14:07.582Z,101281.50
2019-05-30T01:16:42.571Z,101280.98
2019-05-30T01:19:13.304Z,101276.52
2019-05-30T01:21:44.886Z,101279.94
2019-05-30T01:24:16.733Z,101274.70
2019-05-30T01:26:47.434Z,101280.13
2019-05-30T01:29:19.054Z,101274.88
2019-05-30T01:31:50.744Z,101275.68
2019-05-30T01:34:21.450Z,101276.95
2019-05-30T01:36:53.041Z,101266.52
2019-05-30T01:39:24.793Z,101274.69
2019-05-30T01:41:57.646Z,101270.61
2019-05-30T01:44:29.407Z,101269.44
2019-05-30T01:47:01.989Z,101267.70
2019-05-30T01:49:33.749Z,101270.09
2019-05-30T01:52:04.546Z,101274.88
2019-05-30T01:54:36.300Z,101264.17
2019-05-30T01:57:08.787Z,101264.17
2019-05-30T01:59:41.030Z,101274.23
2019-05-30T02:02:12.778Z,101271.78
2019-05-30T02:04:43.453Z,101275.34
2019-05-30T02:07:15.386Z,101272.95
2019-05-30T02:09:48.693Z,101276.00
2019-05-30T02:12:19.478Z,101272.68
2019-05-30T02:14:51.307Z,101277.70
2019-05-30T02:17:22.813Z,101280.09
2019-05-30T02:19:54.394Z,101285.11
2019-05-30T02:22:25.778Z,101280.65
2019-05-30T02:24:56.491Z,101282.19
2019-05-30T02:27:28.289Z,101283.23
2019-05-30T02:30:00.158Z,101283.61
2019-05-30T02:32:32.286Z,101283.05
2019-05-30T02:35:05.127Z,101275.92
2019-05-30T02:37:37.362Z,101273.66
2019-05-30T02:40:12.410Z,101273.66
2019-05-30T02:42:42.787Z,101280.31
2019-05-30T02:45:14.459Z,101282.66
2019-05-30T02:47:46.294Z,101287.32
2019-05-30T02:50:17.808Z,101285.67
2019-05-30T02:52:50.019Z,101291.77
2019-05-30T02:55:21.356Z,101291.06
2019-05-30T02:57:53.301Z,101297.95
2019-05-30T03:00:36.772Z,101296.27
2019-05-30T03:03:11.069Z,101300.91
2019-05-30T03:05:41.727Z,101303.31
2019-05-30T03:08:14.408Z,101300.86
2019-05-30T03:10:45.745Z,101311.28
2019-05-30T03:13:16.483Z,101313.09
2019-05-30T03:15:48.314Z,101311.41
2019-05-30T03:18:19.861Z,101309.22
2019-05-30T03:20:51.711Z,101318.03
2019-05-30T03:23:22.484Z,101316.98
2019-05-30T03:25:54.309Z,101314.47
2019-05-30T03:28:25.829Z,101324.77
2019-05-30T03:30:58.297Z,101321.01
2019-05-30T03:33:39.286Z,101322.17
2019-05-30T03:36:09.198Z,101322.17
2019-05-30T03:38:37.299Z,101323.92
2019-05-30T03:41:11.306Z,101322.80
2019-05-30T03:43:42.610Z,101326.39
2019-05-30T03:46:22.747Z,101320.95
2019-05-30T03:48:54.596Z,101320.95
2019-05-30T03:51:26.732Z,101312.28
2019-05-30T03:53:57.490Z,101312.28
2019-05-30T03:56:39.382Z,101330.16
2019-05-30T03:59:34.311Z,101327.80
2019-05-30T04:02:22.297Z,101330.14
2019-05-30T04:05:07.516Z,101331.69
2019-05-30T04:07:47.898Z,101334.37
2019-05-30T04:10:19.912Z,101339.25
2019-05-30T04:13:34.752Z,101332.81
2019-05-30T04:16:06.912Z,101337.38
2019-05-30T04:18:39.300Z,101335.07
2019-05-30T04:21:13.221Z,101336.62
2019-05-30T04:23:44.409Z,101340.84
2019-05-30T04:26:16.491Z,101340.38
2019-05-30T04:28:49.583Z,101341.17
2019-05-30T04:31:21.374Z,101338.45
2019-05-30T04:33:52.801Z,101338.45
2019-05-30T04:36:24.517Z,101342.11
2019-05-30T04:38:56.120Z,101339.13
2019-05-30T04:41:27.763Z,101342.74
2019-05-30T04:43:58.443Z,101349.16
2019-05-30T04:46:30.559Z,101347.61
2019-05-30T04:49:02.370Z,101351.03
2019-05-30T04:51:34.028Z,101343.78
2019-05-30T04:54:05.737Z,101348.55
2019-05-30T04:56:36.488Z,101349.35
2019-05-30T04:59:08.357Z,101350.77
2019-05-30T05:01:40.293Z,101357.58
2019-05-30T05:04:13.498Z,101360.30
2019-05-30T05:06:45.420Z,101359.78
2019-05-30T05:09:18.201Z,101359.78
2019-05-30T05:11:50.067Z,101358.61
2019-05-30T05:14:22.689Z,101359.65
2019-05-30T05:16:54.793Z,101358.34
2019-05-30T05:19:26.755Z,101355.29
2019-05-30T05:21:58.609Z,101350.17
2019-05-30T05:24:30.732Z,101351.34
2019-05-30T05:27:02.774Z,101351.34
2019-05-30T05:29:33.491Z,101351.91
2019-05-30T05:32:05.561Z,101350.33
2019-05-30T05:34:37.302Z,101339.20
2019-05-30T05:37:08.866Z,101339.20
2019-05-30T05:39:40.740Z,101347.70
2019-05-30T05:42:12.389Z,101348.97
2019-05-30T05:44:44.306Z,101353.06
2019-05-30T05:47:16.397Z,101347.75
2019-05-30T05:49:48.307Z,101350.84
2019-05-30T05:52:20.710Z,101353.30
2019-05-30T05:54:52.858Z,101356.21
2019-05-30T05:57:24.996Z,101349.63
2019-05-30T05:59:56.861Z,101346.24
2019-05-30T06:02:28.774Z,101351.87
2019-05-30T06:04:59.453Z,101352.91
2019-05-30T06:07:31.307Z,101350.89
2019-05-30T06:10:03.300Z,101355.86
2019-05-30T06:12:34.805Z,101357.77
2019-05-30T06:15:06.770Z,101358.98
2019-05-30T06:17:38.599Z,101358.17
2019-05-30T06:20:10.788Z,101353.75
2019-05-30T06:22:42.398Z,101353.75
2019-05-30T06:25:14.303Z,101354.78
2019-05-30T06:27:45.821Z,101353.94
2019-05-30T06:30:18.209Z,101355.84
2019-05-30T06:32:50.070Z,101353.09
2019-05-30T06:35:22.918Z,101354.12
2019-05-30T06:37:55.318Z,101360.64
2019-05-30T06:40:30.333Z,101361.12
2019-05-30T06:43:00.410Z,101356.84
2019-05-30T06:45:32.052Z,101356.84
2019-05-30T06:48:03.840Z,101357.06
2019-05-30T06:50:35.785Z,101361.15
2019-05-30T06:53:06.482Z,101368.48
2019-05-30T06:55:38.315Z,101355.91
2019-05-30T06:58:10.269Z,101351.45
2019-05-30T07:00:41.873Z,101348.75
2019-05-30T07:03:13.873Z,101348.57
2019-05-30T07:05:46.231Z,101349.97
2019-05-30T07:08:18.302Z,101342.47
2019-05-30T07:10:50.302Z,101342.47
2019-05-30T07:13:23.258Z,101341.63
2019-05-30T07:15:55.307Z,101342.83
2019-05-30T07:18:27.558Z,101345.20
2019-05-30T07:21:00.422Z,101341.47
2019-05-30T07:23:32.090Z,101343.83
2019-05-30T07:26:03.880Z,101340.10
2019-05-30T07:28:35.772Z,101347.28
2019-05-30T07:31:06.485Z,101341.67
2019-05-30T07:33:38.261Z,101339.77
2019-05-30T07:36:09.853Z,101340.95
2019-05-30T07:38:41.618Z,101342.31
2019-05-30T07:41:13.372Z,101350.89
2019-05-30T07:43:45.062Z,101350.89
2019-05-30T07:46:17.275Z,101346.45
2019-05-30T07:48:48.856Z,101348.83
2019-05-30T07:51:20.385Z,101350.02
2019-05-30T07:53:52.019Z,101344.05
2019-05-30T07:56:23.800Z,101338.93
2019-05-30T07:58:55.875Z,101343.22
2019-05-30T08:01:28.317Z,101341.67
2019-05-30T08:04:00.309Z,101342.03
2019-05-30T08:06:32.299Z,101339.30
2019-05-30T08:09:05.033Z,101335.20
2019-05-30T08:11:36.742Z,101333.33
2019-05-30T08:14:20.938Z,101330.76
2019-05-30T08:17:12.001Z,101329.41
2019-05-30T08:19:45.310Z,101329.74
2019-05-30T08:22:17.716Z,101327.70
2019-05-30T08:24:48.727Z,101325.50
2019-05-30T08:27:19.570Z,101317.84
2019-05-30T08:29:51.358Z,101321.29
2019-05-30T08:32:23.104Z,101321.29
2019-05-30T08:34:55.820Z,101313.25
2019-05-30T08:37:28.865Z,101316.52
2019-05-30T08:40:00.772Z,101316.50
2019-05-30T08:42:33.269Z,101319.94
2019-05-30T08:45:05.307Z,101314.98
2019-05-30T08:47:38.039Z,101317.02
2019-05-30T08:50:10.314Z,101312.08
2019-05-30T08:52:42.623Z,101307.98
2019-05-30T08:55:16.329Z,101309.70
2019-05-30T08:57:47.930Z,101309.70
2019-05-30T09:00:19.831Z,101308.31
2019-05-30T09:02:51.729Z,101309.68
2019-05-30T09:05:22.556Z,101306.62
2019-05-30T09:07:54.750Z,101287.69
2019-05-30T09:10:25.506Z,101287.69
2019-05-30T09:12:57.266Z,101302.35
2019-05-30T09:15:28.835Z,101305.42
2019-05-30T09:18:00.666Z,101300.29
2019-05-30T09:20:32.382Z,101297.08
2019-05-30T09:23:04.297Z,101297.08
2019-05-30T09:25:35.829Z,101301.16
2019-05-30T09:28:07.527Z,101301.16
2019-05-30T09:30:39.918Z,101287.66
2019-05-30T09:33:13.433Z,101278.63
2019-05-30T09:35:45.425Z,101258.16
2019-05-30T09:38:17.306Z,101258.16
2019-05-30T09:40:49.606Z,101283.06
2019-05-30T09:43:21.616Z,101276.02
2019-05-30T09:45:53.705Z,101280.64
2019-05-30T09:48:24.461Z,101280.64
2019-05-30T09:50:56.305Z,101277.92
2019-05-30T09:53:28.301Z,101276.74
2019-05-30T09:56:00.010Z,101264.97
2019-05-30T09:58:31.758Z,101274.20
2019-05-30T10:03:33.741Z,101269.76
2019-05-30T10:06:04.937Z,101268.20
2019-05-30T10:08:36.686Z,101263.42
2019-05-30T10:11:08.781Z,101266.52
2019-05-30T10:13:39.527Z,101263.95
2019-05-30T10:16:11.746Z,101265.34
2019-05-30T10:18:42.504Z,101265.34
2019-05-30T10:21:14.377Z,101261.41
2019-05-30T10:23:47.541Z,101268.75
2019-05-30T10:26:20.298Z,101260.56
2019-05-30T10:28:51.903Z,101254.08
2019-05-30T10:31:23.385Z,101253.38
2019-05-30T10:33:55.306Z,101255.25
2019-05-30T10:36:27.666Z,101257.14
2019-05-30T10:38:59.746Z,101250.64
2019-05-30T10:41:30.488Z,101250.64
2019-05-30T10:44:02.504Z,101255.09
2019-05-30T10:46:34.302Z,101254.92
2019-05-30T10:49:06.319Z,101249.45
2019-05-30T10:51:38.335Z,101246.23
2019-05-30T10:54:10.062Z,101245.18
2019-05-30T10:56:41.791Z,101245.20
2019-05-30T10:59:13.610Z,101233.77
2019-05-30T11:01:46.620Z,101228.48
2019-05-30T11:04:19.226Z,101228.48
2019-05-30T11:07:34.981Z,101232.56
2019-05-30T11:10:14.311Z,101225.75
2019-05-30T11:12:46.634Z,101221.33
2019-05-30T11:15:19.233Z,101194.17
2019-05-30T11:17:52.739Z,101194.17
2019-05-30T11:20:24.639Z,101192.98
2019-05-30T11:22:56.498Z,101188.19
2019-05-30T11:25:28.333Z,101175.36
2019-05-30T11:28:00.061Z,101175.36
2019-05-30T11:30:31.778Z,101197.34
2019-05-30T11:33:02.647Z,101201.58
2019-05-30T11:35:34.367Z,101191.53
2019-05-30T11:38:06.122Z,101191.53
2019-05-30T11:40:37.746Z,101184.89
2019-05-30T11:43:08.476Z,101184.21
2019-05-30T11:45:43.136Z,101187.46
2019-05-30T11:48:17.337Z,101186.78
2019-05-30T11:50:50.777Z,101195.30
2019-05-30T11:53:23.648Z,101180.95
2019-05-30T11:55:56.223Z,101173.18
2019-05-30T11:58:28.389Z,101173.18
2019-05-30T12:01:00.646Z,101169.41
2019-05-30T12:03:31.661Z,101170.26
2019-05-30T12:06:03.446Z,101171.27
2019-05-30T12:08:35.760Z,101174.84
2019-05-30T12:11:07.256Z,101165.48
2019-05-30T12:13:38.999Z,101165.28
2019-05-30T12:16:10.741Z,101169.55
2019-05-30T12:18:42.253Z,101168.67
2019-05-30T12:21:13.882Z,101166.81
2019-05-30T12:23:45.594Z,101162.45
2019-05-30T12:26:17.332Z,101162.64
2019-05-30T12:28:49.297Z,101162.64
2019-05-30T12:31:21.263Z,101165.22
2019-05-30T12:33:54.089Z,101159.89
2019-05-30T12:36:25.801Z,101149.66
2019-05-30T12:38:58.428Z,101148.66
2019-05-30T12:41:30.217Z,101146.77
2019-05-30T12:44:03.246Z,101146.77
2019-05-30T12:46:35.290Z,101147.27
2019-05-30T12:49:06.964Z,101148.47
2019-05-30T12:51:38.777Z,101148.63
2019-05-30T12:54:10.301Z,101145.22
2019-05-30T12:56:42.235Z,101138.40
2019-05-30T12:59:13.794Z,101134.46
2019-05-30T13:01:47.255Z,101129.88
2019-05-30T13:04:19.406Z,101121.14
2019-05-30T13:06:54.013Z,101127.97
2019-05-30T13:09:24.369Z,101133.72
2019-05-30T13:11:56.356Z,101135.09
2019-05-30T13:14:28.399Z,101129.47
2019-05-30T13:16:59.775Z,101129.47
2019-05-30T13:19:31.360Z,101128.91
2019-05-30T13:22:03.469Z,101134.89
2019-05-30T13:24:35.214Z,101133.84
2019-05-30T13:27:06.695Z,101131.96
2019-05-30T13:29:37.297Z,101131.48
2019-05-30T13:32:08.742Z,101130.44
2019-05-30T13:34:40.281Z,101129.06
2019-05-30T13:37:11.787Z,101119.19
2019-05-30T13:39:43.402Z,101129.75
2019-05-30T13:42:14.932Z,101119.34
2019-05-30T13:44:46.500Z,101115.89
2019-05-30T13:47:18.218Z,101118.50
2019-05-30T13:49:49.773Z,101111.68
2019-05-30T13:52:21.388Z,101108.11
2019-05-30T13:54:53.104Z,101110.31
2019-05-30T13:57:24.790Z,101105.48
2019-05-30T13:59:56.414Z,101110.91
2019-05-30T14:02:27.970Z,101101.30
2019-05-30T14:04:59.969Z,101112.63
2019-05-30T14:07:31.729Z,101104.97
2019-05-30T14:10:02.471Z,101101.28
2019-05-30T14:12:34.402Z,101098.02
2019-05-30T14:15:10.065Z,101098.02
2019-05-30T14:17:39.983Z,101105.85
2019-05-30T14:20:11.666Z,101106.38
2019-05-30T14:22:43.188Z,101103.28
2019-05-30T14:25:16.392Z,101095.08
2019-05-30T14:27:48.280Z,101091.16
2019-05-30T14:30:20.372Z,101100.72
2019-05-30T14:32:51.983Z,101098.18
2019-05-30T14:35:23.374Z,101100.23
2019-05-30T14:37:54.785Z,101105.17
2019-05-30T14:40:26.303Z,101108.95
2019-05-30T14:42:58.265Z,101112.20
2019-05-30T14:45:29.726Z,101116.45
2019-05-30T14:48:01.421Z,101113.56
2019-05-30T14:50:32.983Z,101116.78
2019-05-30T14:53:04.980Z,101112.00
2019-05-30T14:55:36.578Z,101108.95
2019-05-30T14:58:09.134Z,101097.86
2019-05-30T15:00:41.438Z,101097.86
2019-05-30T15:03:19.416Z,101103.48
2019-05-30T15:05:51.220Z,101100.59
2019-05-30T15:08:31.611Z,101105.01
2019-05-30T15:11:03.102Z,101099.75
2019-05-30T15:13:53.861Z,101098.55
2019-05-30T15:16:25.744Z,101094.97
2019-05-30T15:18:58.111Z,101088.83
2019-05-30T15:21:32.058Z,101086.09
2019-05-30T15:24:03.655Z,101083.37
2019-05-30T15:26:34.586Z,101084.05
2019-05-30T15:29:08.392Z,101080.64
2019-05-30T15:31:45.441Z,101087.63
2019-05-30T15:34:20.208Z,101081.32
2019-05-30T15:36:57.458Z,101081.00
2019-05-30T15:39:40.141Z,101081.68
2019-05-30T15:42:24.095Z,101080.31
2019-05-30T15:45:03.058Z,101079.28
2019-05-30T15:47:38.681Z,101078.27
2019-05-30T15:50:15.450Z,101075.70
2019-05-30T15:52:47.842Z,101073.66
2019-05-30T15:55:22.949Z,101076.91
2019-05-30T15:57:53.421Z,101073.17
2019-05-30T16:00:25.756Z,101081.32
2019-05-30T16:02:56.447Z,101076.91
2019-05-30T16:05:28.218Z,101078.63
2019-05-30T16:07:59.718Z,101079.80
2019-05-30T16:10:30.657Z,101082.72
2019-05-30T16:13:01.443Z,101079.63
2019-05-30T16:15:33.275Z,101078.27
2019-05-30T16:18:04.907Z,101075.02
2019-05-30T16:20:37.049Z,101079.11
2019-05-30T16:23:08.750Z,101074.17
2019-05-30T16:25:39.913Z,101072.81
2019-05-30T16:28:11.782Z,101077.06
2019-05-30T16:30:43.435Z,101073.17
2019-05-30T16:33:15.966Z,101072.81
2019-05-30T16:35:48.354Z,101074.17
2019-05-30T16:38:20.125Z,101078.98
2019-05-30T16:40:52.332Z,101081.31
2019-05-30T16:43:24.312Z,101073.77
2019-05-30T16:45:56.293Z,101078.34
2019-05-30T16:48:27.822Z,101077.33
2019-05-30T16:50:59.644Z,101078.97
2019-05-30T16:53:31.657Z,101070.24
2019-05-30T16:56:03.381Z,101069.98
2019-05-30T16:58:35.305Z,101069.98
2019-05-30T17:01:06.906Z,101078.70
2019-05-30T17:03:38.759Z,101085.05
2019-05-30T17:06:09.635Z,101085.70
2019-05-30T17:08:40.726Z,101085.81
2019-05-30T17:11:12.935Z,101087.00
2019-05-30T17:13:44.899Z,101082.23
2019-05-30T17:16:17.825Z,101081.88
2019-05-30T17:18:49.745Z,101086.44
2019-05-30T17:21:21.103Z,101083.24
2019-05-30T17:23:53.024Z,101084.94
2019-05-30T17:26:25.375Z,101087.16
2019-05-30T17:28:57.302Z,101097.77
2019-05-30T17:31:28.963Z,101097.77
2019-05-30T17:34:00.829Z,101095.52
2019-05-30T17:36:32.802Z,101101.70
2019-05-30T17:39:08.099Z,101105.44
2019-05-30T17:41:39.806Z,101104.23
2019-05-30T17:44:25.088Z,101104.59
2019-05-30T17:46:57.666Z,101105.44
2019-05-30T17:49:29.917Z,101107.86
2019-05-30T17:52:05.645Z,101113.48
2019-05-30T17:54:38.098Z,101110.99
2019-05-30T17:57:09.786Z,101110.99
2019-05-30T17:59:41.602Z,101118.30
2019-05-30T18:02:15.920Z,101111.00
2019-05-30T18:04:47.707Z,101111.00
2019-05-30T18:07:18.458Z,101121.56
2019-05-30T18:09:55.148Z,101119.19
2019-05-30T18:12:27.507Z,101112.84
2019-05-30T18:15:01.890Z,101112.00
2019-05-30T18:17:37.952Z,101112.00
2019-05-30T18:20:11.309Z,101114.92
2019-05-30T18:22:43.306Z,101118.50
2019-05-30T18:25:18.375Z,101118.83
2019-05-30T18:27:50.057Z,101121.92
2019-05-30T18:30:23.714Z,101124.64
2019-05-30T18:32:55.362Z,101127.54
2019-05-30T18:35:28.475Z,101125.50
2019-05-30T18:38:01.962Z,101134.53
2019-05-30T18:40:35.307Z,101123.28
2019-05-30T18:43:12.446Z,101131.16
2019-05-30T18:45:49.885Z,101134.20
2019-05-30T18:48:25.162Z,101137.30
2019-05-30T18:50:57.064Z,101135.25
2019-05-30T18:53:30.318Z,101132.16
2019-05-30T18:56:03.311Z,101136.94
2019-05-30T18:58:35.295Z,101133.20
2019-05-30T19:01:07.314Z,101134.56
2019-05-30T19:03:39.234Z,101131.84
2019-05-30T19:06:15.308Z,101136.29
2019-05-30T19:08:48.467Z,101137.14
2019-05-30T19:11:28.167Z,101143.61
2019-05-30T19:13:56.313Z,101143.61
2019-05-30T19:16:28.502Z,101144.97
2019-05-30T19:18:59.877Z,101156.45
2019-05-30T19:21:32.196Z,101154.39
2019-05-30T19:24:07.347Z,101158.81
2019-05-30T19:26:39.295Z,101170.06
2019-05-30T19:29:11.066Z,101168.89
2019-05-30T19:31:42.760Z,101168.86
2019-05-30T19:34:13.477Z,101168.70
2019-05-30T19:36:45.786Z,101168.70
2019-05-30T19:39:17.442Z,101171.46
2019-05-30T19:41:56.862Z,101177.58
2019-05-30T19:44:22.843Z,101176.20
2019-05-30T19:46:54.622Z,101179.45
2019-05-30T19:49:26.804Z,101181.70
2019-05-30T19:51:58.647Z,101181.70
2019-05-30T19:54:30.916Z,101189.02
2019-05-30T19:57:02.788Z,101189.02
2019-05-30T19:59:33.820Z,101190.90
2019-05-30T20:04:36.348Z,101196.00
2019-05-30T20:07:08.818Z,101193.80
2019-05-30T20:09:40.853Z,101199.94
2019-05-30T20:12:12.990Z,101199.94
2019-05-30T20:14:44.757Z,101198.22
2019-05-30T20:17:15.631Z,101196.20
2019-05-30T20:19:47.341Z,101190.02
2019-05-30T20:22:19.310Z,101197.41
2019-05-30T20:24:50.997Z,101199.42
2019-05-30T20:27:22.793Z,101202.83
2019-05-30T20:29:54.662Z,101201.98
2019-05-30T20:32:26.472Z,101206.77
2019-05-30T20:34:58.309Z,101202.70
2019-05-30T20:37:29.923Z,101203.89
2019-05-30T20:40:02.398Z,101206.63
2019-05-30T20:42:34.703Z,101203.05
2019-05-30T20:45:09.901Z,101208.52
2019-05-30T20:47:42.221Z,101191.78
2019-05-30T20:50:15.329Z,101191.78
2019-05-30T20:52:47.685Z,101206.30
2019-05-30T20:55:20.853Z,101216.17
2019-05-30T20:57:52.890Z,101211.23
2019-05-30T21:00:43.846Z,101205.25
2019-05-30T21:03:16.314Z,101207.30
2019-05-30T21:05:48.066Z,101206.45
2019-05-30T21:08:19.765Z,101212.08
2019-05-30T21:10:51.477Z,101209.38
2019-05-30T21:13:23.302Z,101208.66
2019-05-30T21:15:54.829Z,101207.30
2019-05-30T21:18:26.793Z,101203.20
2019-05-30T21:20:58.729Z,101198.63
2019-05-30T21:23:29.496Z,101193.00
2019-05-30T21:26:01.792Z,101204.75
2019-05-30T21:28:33.721Z,101198.12
2019-05-30T21:31:04.593Z,101196.56
2019-05-30T21:33:37.586Z,101198.97
2019-05-30T21:36:09.753Z,101198.97
2019-05-30T21:38:41.938Z,101205.11
2019-05-30T21:41:15.298Z,101205.27
2019-05-30T21:43:46.905Z,101204.80
2019-05-30T21:46:18.766Z,101210.06
2019-05-30T21:48:49.492Z,101207.66
2019-05-30T21:51:21.307Z,101203.92
2019-05-30T21:53:52.852Z,101210.75
2019-05-30T21:56:25.298Z,101214.16
2019-05-30T21:58:57.297Z,101217.73
2019-05-30T22:01:35.061Z,101214.48
2019-05-30T22:04:07.794Z,101216.35
2019-05-30T22:06:40.850Z,101214.31
2019-05-30T22:09:13.051Z,101216.69
2019-05-30T22:11:45.597Z,101217.89
2019-05-30T22:14:17.485Z,101212.44
2019-05-30T22:16:50.267Z,101211.56
2019-05-30T22:19:22.057Z,101215.17
2019-05-30T22:21:53.829Z,101213.80
2019-05-30T22:24:25.618Z,101211.56
2019-05-30T22:26:57.328Z,101198.45
2019-05-30T22:32:10.901Z,101211.70
2019-05-30T22:34:42.717Z,101214.62
2019-05-30T22:37:14.413Z,101215.98
2019-05-30T22:39:46.790Z,101223.85
2019-05-30T22:42:19.041Z,101215.66
2019-05-30T22:44:50.782Z,101220.09
2019-05-30T22:47:21.373Z,101215.50
2019-05-30T22:49:53.046Z,101214.30
2019-05-30T22:52:24.771Z,101205.06
2019-05-30T22:54:57.324Z,101201.85
2019-05-30T22:57:28.944Z,101202.18
2019-05-30T23:00:00.634Z,101206.59
2019-05-30T23:02:32.125Z,101202.50
2019-05-30T23:05:03.597Z,101198.41
2019-05-30T23:07:35.105Z,101199.25
2019-05-30T23:10:06.772Z,101198.77
2019-05-30T23:12:38.272Z,101203.34
2019-05-30T23:15:09.803Z,101204.91
2019-05-30T23:20:12.019Z,101212.91
2019-05-30T23:22:43.336Z,101209.84
2019-05-30T23:25:14.788Z,101208.16
2019-05-30T23:27:47.424Z,101205.59
2019-05-30T23:30:20.869Z,101204.58
2019-05-30T23:32:52.723Z,101210.55
2019-05-30T23:35:23.464Z,101202.00
2019-05-30T23:37:55.252Z,101201.33
2019-05-30T23:40:26.987Z,101197.42
2019-05-30T23:42:59.265Z,101193.48
2019-05-30T23:45:31.137Z,101193.00
2019-05-30T23:48:02.751Z,101195.38
2019-05-30T23:50:34.776Z,101190.76
2019-05-30T23:53:06.263Z,101203.37
2019-05-30T23:55:37.778Z,101195.19
2019-05-30T23:58:08.553Z,101192.63
